sensor_id;sensor_type;location;lat;lon;timestamp;P1;durP1;ratioP1;P2;durP2;ratioP2
66761;SDS011;53672;48.176;16.338;2023-12-20T00:00:44;39.63;;;16.85;;
66761;SDS011;53672;48.176;16.338;2023-12-20T00:05:47;40.10;;;17.00;;
66761;SDS011;53672;48.176;16.338;2023-12-20T00:10:49;38.00;;;16.27;;
66761;SDS011;53672;48.176;16.338;2023-12-20T00:15:50;36.10;;;15.30;;
66761;SDS011;53672;48.176;16.338;2023-12-20T00:20:53;41.00;;;17.25;;
66761;SDS011;53672;48.176;16.338;2023-12-20T00:25:55;38.55;;;16.35;;
66761;SDS011;53672;48.176;16.338;2023-12-20T00:30:56;42.25;;;17.33;;
66761;SDS011;53672;48.176;16.338;2023-12-20T00:35:59;43.13;;;18.20;;
66761;SDS011;53672;48.176;16.338;2023-12-20T00:41:01;49.87;;;18.47;;
66761;SDS011;53672;48.176;16.338;2023-12-20T00:46:03;46.30;;;18.27;;
66761;SDS011;53672;48.176;16.338;2023-12-20T00:51:07;46.30;;;18.05;;
66761;SDS011;53672;48.176;16.338;2023-12-20T00:56:08;44.47;;;18.23;;
66761;SDS011;53672;48.176;16.338;2023-12-20T01:01:10;44.95;;;18.48;;
66761;SDS011;53672;48.176;16.338;2023-12-20T01:06:14;42.90;;;17.47;;
66761;SDS011;53672;48.176;16.338;2023-12-20T01:11:16;45.03;;;18.08;;
66761;SDS011;53672;48.176;16.338;2023-12-20T01:16:17;42.65;;;18.90;;
66761;SDS011;53672;48.176;16.338;2023-12-20T01:21:20;43.35;;;17.05;;
66761;SDS011;53672;48.176;16.338;2023-12-20T01:26:22;40.05;;;17.33;;
66761;SDS011;53672;48.176;16.338;2023-12-20T01:31:24;40.00;;;16.97;;
66761;SDS011;53672;48.176;16.338;2023-12-20T01:36:28;45.88;;;18.80;;
66761;SDS011;53672;48.176;16.338;2023-12-20T01:41:30;43.28;;;17.55;;
66761;SDS011;53672;48.176;16.338;2023-12-20T01:46:31;43.22;;;17.27;;
66761;SDS011;53672;48.176;16.338;2023-12-20T01:51:35;39.97;;;17.00;;
66761;SDS011;53672;48.176;16.338;2023-12-20T01:56:37;42.70;;;16.47;;
66761;SDS011;53672;48.176;16.338;2023-12-20T02:01:40;39.92;;;16.33;;
66761;SDS011;53672;48.176;16.338;2023-12-20T02:06:43;36.65;;;15.63;;
66761;SDS011;53672;48.176;16.338;2023-12-20T02:11:46;38.83;;;16.13;;
66761;SDS011;53672;48.176;16.338;2023-12-20T02:16:48;39.47;;;15.70;;
66761;SDS011;53672;48.176;16.338;2023-12-20T02:21:51;32.70;;;13.97;;
66761;SDS011;53672;48.176;16.338;2023-12-20T02:27:06;34.15;;;14.65;;
66761;SDS011;53672;48.176;16.338;2023-12-20T02:32:08;34.10;;;14.68;;
66761;SDS011;53672;48.176;16.338;2023-12-20T02:37:11;25.52;;;12.25;;
66761;SDS011;53672;48.176;16.338;2023-12-20T02:42:13;33.30;;;13.15;;
66761;SDS011;53672;48.176;16.338;2023-12-20T02:47:14;28.97;;;12.00;;
66761;SDS011;53672;48.176;16.338;2023-12-20T02:52:17;27.42;;;12.07;;
66761;SDS011;53672;48.176;16.338;2023-12-20T02:57:19;27.77;;;12.40;;
66761;SDS011;53672;48.176;16.338;2023-12-20T03:02:21;26.42;;;11.32;;
66761;SDS011;53672;48.176;16.338;2023-12-20T03:07:23;28.75;;;12.93;;
66761;SDS011;53672;48.176;16.338;2023-12-20T03:12:25;33.43;;;13.33;;
66761;SDS011;53672;48.176;16.338;2023-12-20T03:17:27;36.83;;;13.77;;
66761;SDS011;53672;48.176;16.338;2023-12-20T03:22:29;35.50;;;12.85;;
66761;SDS011;53672;48.176;16.338;2023-12-20T03:27:31;30.25;;;12.82;;
66761;SDS011;53672;48.176;16.338;2023-12-20T03:32:33;33.55;;;13.55;;
66761;SDS011;53672;48.176;16.338;2023-12-20T03:37:36;36.07;;;13.27;;
66761;SDS011;53672;48.176;16.338;2023-12-20T03:42:37;30.88;;;12.88;;
66761;SDS011;53672;48.176;16.338;2023-12-20T03:47:39;31.63;;;12.15;;
66761;SDS011;53672;48.176;16.338;2023-12-20T03:52:42;31.83;;;13.30;;
66761;SDS011;53672;48.176;16.338;2023-12-20T03:57:44;29.73;;;12.00;;
66761;SDS011;53672;48.176;16.338;2023-12-20T04:02:46;29.90;;;12.57;;
66761;SDS011;53672;48.176;16.338;2023-12-20T04:07:49;31.50;;;13.13;;
66761;SDS011;53672;48.176;16.338;2023-12-20T04:12:51;29.60;;;11.98;;
66761;SDS011;53672;48.176;16.338;2023-12-20T04:17:53;30.58;;;12.20;;
66761;SDS011;53672;48.176;16.338;2023-12-20T04:22:56;31.20;;;11.98;;
66761;SDS011;53672;48.176;16.338;2023-12-20T04:27:57;28.17;;;11.93;;
66761;SDS011;53672;48.176;16.338;2023-12-20T04:32:59;28.20;;;12.88;;
66761;SDS011;53672;48.176;16.338;2023-12-20T04:38:02;28.35;;;12.20;;
66761;SDS011;53672;48.176;16.338;2023-12-20T04:43:04;27.70;;;11.98;;
66761;SDS011;53672;48.176;16.338;2023-12-20T04:48:06;25.73;;;11.43;;
66761;SDS011;53672;48.176;16.338;2023-12-20T04:53:09;24.13;;;10.60;;
66761;SDS011;53672;48.176;16.338;2023-12-20T04:58:11;26.50;;;9.80;;
66761;SDS011;53672;48.176;16.338;2023-12-20T05:03:12;26.42;;;10.63;;
66761;SDS011;53672;48.176;16.338;2023-12-20T05:08:15;22.10;;;9.57;;
66761;SDS011;53672;48.176;16.338;2023-12-20T05:13:17;21.52;;;9.82;;
66761;SDS011;53672;48.176;16.338;2023-12-20T05:18:19;21.77;;;10.00;;
66761;SDS011;53672;48.176;16.338;2023-12-20T05:23:22;21.02;;;9.20;;
66761;SDS011;53672;48.176;16.338;2023-12-20T05:28:24;20.05;;;9.23;;
66761;SDS011;53672;48.176;16.338;2023-12-20T05:33:26;19.70;;;8.60;;
66761;SDS011;53672;48.176;16.338;2023-12-20T05:38:29;17.00;;;7.47;;
66761;SDS011;53672;48.176;16.338;2023-12-20T05:43:30;18.27;;;7.93;;
66761;SDS011;53672;48.176;16.338;2023-12-20T05:48:32;15.15;;;6.82;;
66761;SDS011;53672;48.176;16.338;2023-12-20T05:53:35;17.85;;;8.07;;
66761;SDS011;53672;48.176;16.338;2023-12-20T05:58:38;16.02;;;6.65;;
66761;SDS011;53672;48.176;16.338;2023-12-20T06:03:41;13.90;;;5.88;;
66761;SDS011;53672;48.176;16.338;2023-12-20T06:08:44;12.53;;;5.60;;
66761;SDS011;53672;48.176;16.338;2023-12-20T06:13:45;11.52;;;4.90;;
66761;SDS011;53672;48.176;16.338;2023-12-20T06:18:48;7.22;;;2.65;;
66761;SDS011;53672;48.176;16.338;2023-12-20T06:23:51;7.05;;;2.50;;
66761;SDS011;53672;48.176;16.338;2023-12-20T06:28:53;5.70;;;2.10;;
66761;SDS011;53672;48.176;16.338;2023-12-20T06:33:55;6.17;;;2.50;;
66761;SDS011;53672;48.176;16.338;2023-12-20T06:39:01;6.13;;;2.40;;
66761;SDS011;53672;48.176;16.338;2023-12-20T06:44:04;6.43;;;2.20;;
66761;SDS011;53672;48.176;16.338;2023-12-20T06:49:06;6.07;;;2.25;;
66761;SDS011;53672;48.176;16.338;2023-12-20T06:54:09;5.28;;;1.83;;
66761;SDS011;53672;48.176;16.338;2023-12-20T06:59:10;6.93;;;2.50;;
66761;SDS011;53672;48.176;16.338;2023-12-20T07:04:12;6.25;;;2.20;;
66761;SDS011;53672;48.176;16.338;2023-12-20T07:09:15;6.85;;;2.15;;
66761;SDS011;53672;48.176;16.338;2023-12-20T07:14:16;5.35;;;2.30;;
66761;SDS011;53672;48.176;16.338;2023-12-20T07:19:18;5.70;;;2.40;;
66761;SDS011;53672;48.176;16.338;2023-12-20T07:24:21;6.90;;;2.70;;
66761;SDS011;53672;48.176;16.338;2023-12-20T07:29:22;7.45;;;3.00;;
66761;SDS011;53672;48.176;16.338;2023-12-20T07:34:24;6.38;;;2.40;;
66761;SDS011;53672;48.176;16.338;2023-12-20T07:39:27;6.88;;;2.45;;
66761;SDS011;53672;48.176;16.338;2023-12-20T07:44:29;6.13;;;2.60;;
66761;SDS011;53672;48.176;16.338;2023-12-20T07:49:30;6.73;;;2.80;;
66761;SDS011;53672;48.176;16.338;2023-12-20T07:54:33;7.93;;;2.95;;
66761;SDS011;53672;48.176;16.338;2023-12-20T07:59:35;6.28;;;2.90;;
66761;SDS011;53672;48.176;16.338;2023-12-20T08:04:36;6.72;;;2.58;;
66761;SDS011;53672;48.176;16.338;2023-12-20T08:09:39;7.80;;;2.90;;
66761;SDS011;53672;48.176;16.338;2023-12-20T08:14:41;7.63;;;3.20;;
66761;SDS011;53672;48.176;16.338;2023-12-20T08:19:43;7.78;;;3.20;;
66761;SDS011;53672;48.176;16.338;2023-12-20T08:24:45;8.13;;;3.28;;
66761;SDS011;53672;48.176;16.338;2023-12-20T08:29:48;8.25;;;3.40;;
66761;SDS011;53672;48.176;16.338;2023-12-20T08:34:50;7.15;;;3.10;;
66761;SDS011;53672;48.176;16.338;2023-12-20T08:39:53;7.37;;;3.00;;
66761;SDS011;53672;48.176;16.338;2023-12-20T08:44:55;7.13;;;2.97;;
66761;SDS011;53672;48.176;16.338;2023-12-20T08:49:56;6.97;;;2.92;;
66761;SDS011;53672;48.176;16.338;2023-12-20T08:55:01;6.07;;;2.60;;
66761;SDS011;53672;48.176;16.338;2023-12-20T09:00:03;8.10;;;3.30;;
66761;SDS011;53672;48.176;16.338;2023-12-20T09:05:07;6.17;;;2.70;;
66761;SDS011;53672;48.176;16.338;2023-12-20T09:10:10;6.72;;;2.55;;
66761;SDS011;53672;48.176;16.338;2023-12-20T09:15:12;6.28;;;2.50;;
66761;SDS011;53672;48.176;16.338;2023-12-20T09:20:13;5.30;;;2.47;;
66761;SDS011;53672;48.176;16.338;2023-12-20T09:25:16;5.45;;;1.90;;
66761;SDS011;53672;48.176;16.338;2023-12-20T09:30:18;4.27;;;1.80;;
66761;SDS011;53672;48.176;16.338;2023-12-20T09:35:20;5.47;;;1.83;;
66761;SDS011;53672;48.176;16.338;2023-12-20T09:40:23;5.47;;;1.80;;
66761;SDS011;53672;48.176;16.338;2023-12-20T09:45:27;3.67;;;1.38;;
66761;SDS011;53672;48.176;16.338;2023-12-20T09:50:30;4.00;;;1.15;;
66761;SDS011;53672;48.176;16.338;2023-12-20T09:55:34;4.60;;;1.50;;
66761;SDS011;53672;48.176;16.338;2023-12-20T10:00:37;4.15;;;1.73;;
66761;SDS011;53672;48.176;16.338;2023-12-20T10:05:38;4.70;;;1.92;;
66761;SDS011;53672;48.176;16.338;2023-12-20T10:10:48;5.65;;;1.95;;
66761;SDS011;53672;48.176;16.338;2023-12-20T10:15:50;4.70;;;2.00;;
66761;SDS011;53672;48.176;16.338;2023-12-20T10:20:51;4.47;;;1.87;;
66761;SDS011;53672;48.176;16.338;2023-12-20T10:25:57;5.50;;;1.77;;
66761;SDS011;53672;48.176;16.338;2023-12-20T10:30:59;4.15;;;1.55;;
66761;SDS011;53672;48.176;16.338;2023-12-20T10:36:00;3.85;;;1.60;;
66761;SDS011;53672;48.176;16.338;2023-12-20T10:41:04;4.85;;;1.67;;
66761;SDS011;53672;48.176;16.338;2023-12-20T10:46:07;6.30;;;1.70;;
66761;SDS011;53672;48.176;16.338;2023-12-20T10:51:09;3.88;;;1.45;;
66761;SDS011;53672;48.176;16.338;2023-12-20T10:56:15;3.95;;;1.50;;
66761;SDS011;53672;48.176;16.338;2023-12-20T11:01:18;4.70;;;2.00;;
66761;SDS011;53672;48.176;16.338;2023-12-20T11:06:26;4.07;;;1.80;;
66761;SDS011;53672;48.176;16.338;2023-12-20T11:11:37;4.70;;;2.10;;
66761;SDS011;53672;48.176;16.338;2023-12-20T11:16:48;3.97;;;1.83;;
66761;SDS011;53672;48.176;16.338;2023-12-20T11:21:51;4.18;;;1.55;;
66761;SDS011;53672;48.176;16.338;2023-12-20T11:26:56;4.90;;;1.60;;
66761;SDS011;53672;48.176;16.338;2023-12-20T11:31:59;3.47;;;1.10;;
66761;SDS011;53672;48.176;16.338;2023-12-20T11:37:02;4.03;;;1.30;;
66761;SDS011;53672;48.176;16.338;2023-12-20T11:42:06;3.88;;;1.40;;
66761;SDS011;53672;48.176;16.338;2023-12-20T11:47:08;3.58;;;1.23;;
66761;SDS011;53672;48.176;16.338;2023-12-20T11:52:11;3.25;;;1.13;;
66761;SDS011;53672;48.176;16.338;2023-12-20T11:57:14;3.55;;;1.23;;
66761;SDS011;53672;48.176;16.338;2023-12-20T12:02:16;3.93;;;1.17;;
66761;SDS011;53672;48.176;16.338;2023-12-20T12:07:18;2.90;;;0.90;;
66761;SDS011;53672;48.176;16.338;2023-12-20T12:12:21;3.03;;;0.95;;
66761;SDS011;53672;48.176;16.338;2023-12-20T12:17:23;2.85;;;0.90;;
66761;SDS011;53672;48.176;16.338;2023-12-20T12:22:25;2.67;;;0.90;;
66761;SDS011;53672;48.176;16.338;2023-12-20T12:27:29;2.93;;;0.80;;
66761;SDS011;53672;48.176;16.338;2023-12-20T12:32:30;2.70;;;0.90;;
66761;SDS011;53672;48.176;16.338;2023-12-20T12:37:33;3.78;;;0.90;;
66761;SDS011;53672;48.176;16.338;2023-12-20T12:42:37;3.63;;;1.10;;
66761;SDS011;53672;48.176;16.338;2023-12-20T12:47:39;3.67;;;1.00;;
66761;SDS011;53672;48.176;16.338;2023-12-20T12:52:41;3.60;;;1.13;;
66761;SDS011;53672;48.176;16.338;2023-12-20T12:57:44;3.03;;;1.05;;
66761;SDS011;53672;48.176;16.338;2023-12-20T13:02:46;3.25;;;1.13;;
66761;SDS011;53672;48.176;16.338;2023-12-20T13:07:47;3.67;;;1.17;;
66761;SDS011;53672;48.176;16.338;2023-12-20T13:12:50;3.45;;;1.20;;
66761;SDS011;53672;48.176;16.338;2023-12-20T13:17:52;6.77;;;2.50;;
66761;SDS011;53672;48.176;16.338;2023-12-20T13:22:53;3.80;;;1.30;;
66761;SDS011;53672;48.176;16.338;2023-12-20T13:27:56;4.47;;;1.10;;
66761;SDS011;53672;48.176;16.338;2023-12-20T13:32:59;3.78;;;1.30;;
66761;SDS011;53672;48.176;16.338;2023-12-20T13:38:01;6.45;;;1.50;;
66761;SDS011;53672;48.176;16.338;2023-12-20T13:43:04;3.47;;;1.17;;
66761;SDS011;53672;48.176;16.338;2023-12-20T13:48:06;3.60;;;1.40;;
66761;SDS011;53672;48.176;16.338;2023-12-20T13:53:08;3.45;;;1.27;;
66761;SDS011;53672;48.176;16.338;2023-12-20T13:58:11;3.38;;;1.10;;
66761;SDS011;53672;48.176;16.338;2023-12-20T14:03:12;3.58;;;1.20;;
66761;SDS011;53672;48.176;16.338;2023-12-20T14:08:14;3.83;;;1.37;;
66761;SDS011;53672;48.176;16.338;2023-12-20T14:13:17;3.35;;;1.20;;
66761;SDS011;53672;48.176;16.338;2023-12-20T14:18:19;3.20;;;1.10;;
66761;SDS011;53672;48.176;16.338;2023-12-20T14:23:20;3.88;;;1.00;;
66761;SDS011;53672;48.176;16.338;2023-12-20T14:28:24;2.50;;;0.80;;
66761;SDS011;53672;48.176;16.338;2023-12-20T14:33:25;3.47;;;1.00;;
66761;SDS011;53672;48.176;16.338;2023-12-20T14:38:27;3.22;;;1.10;;
66761;SDS011;53672;48.176;16.338;2023-12-20T14:43:30;3.97;;;1.02;;
66761;SDS011;53672;48.176;16.338;2023-12-20T14:48:31;4.47;;;1.30;;
66761;SDS011;53672;48.176;16.338;2023-12-20T14:53:33;4.47;;;1.20;;
66761;SDS011;53672;48.176;16.338;2023-12-20T14:58:38;3.60;;;1.17;;
66761;SDS011;53672;48.176;16.338;2023-12-20T15:03:40;3.40;;;1.10;;
66761;SDS011;53672;48.176;16.338;2023-12-20T15:08:41;3.40;;;1.25;;
66761;SDS011;53672;48.176;16.338;2023-12-20T15:13:44;3.55;;;1.55;;
66761;SDS011;53672;48.176;16.338;2023-12-20T15:18:48;3.80;;;1.50;;
66761;SDS011;53672;48.176;16.338;2023-12-20T15:23:50;4.57;;;1.50;;
66761;SDS011;53672;48.176;16.338;2023-12-20T15:28:54;3.55;;;1.45;;
66761;SDS011;53672;48.176;16.338;2023-12-20T15:33:56;4.40;;;1.58;;
66761;SDS011;53672;48.176;16.338;2023-12-20T15:38:58;3.78;;;1.50;;
66761;SDS011;53672;48.176;16.338;2023-12-20T15:44:01;3.72;;;1.42;;
66761;SDS011;53672;48.176;16.338;2023-12-20T15:49:03;6.30;;;1.93;;
66761;SDS011;53672;48.176;16.338;2023-12-20T15:54:04;5.75;;;1.90;;
66761;SDS011;53672;48.176;16.338;2023-12-20T15:59:09;5.65;;;2.53;;
66761;SDS011;53672;48.176;16.338;2023-12-20T16:04:11;4.70;;;1.90;;
66761;SDS011;53672;48.176;16.338;2023-12-20T16:09:12;3.80;;;1.70;;
66761;SDS011;53672;48.176;16.338;2023-12-20T16:14:16;4.03;;;1.90;;
66761;SDS011;53672;48.176;16.338;2023-12-20T16:19:19;5.20;;;2.33;;
66761;SDS011;53672;48.176;16.338;2023-12-20T16:24:21;4.68;;;2.00;;
66761;SDS011;53672;48.176;16.338;2023-12-20T16:29:24;6.30;;;1.67;;
66761;SDS011;53672;48.176;16.338;2023-12-20T16:34:25;5.35;;;2.00;;
66761;SDS011;53672;48.176;16.338;2023-12-20T16:39:27;6.53;;;1.50;;
66761;SDS011;53672;48.176;16.338;2023-12-20T16:44:30;3.50;;;1.40;;
66761;SDS011;53672;48.176;16.338;2023-12-20T16:49:32;4.70;;;1.90;;
66761;SDS011;53672;48.176;16.338;2023-12-20T16:54:33;4.13;;;1.60;;
66761;SDS011;53672;48.176;16.338;2023-12-20T16:59:36;3.88;;;1.60;;
66761;SDS011;53672;48.176;16.338;2023-12-20T17:04:39;6.17;;;1.87;;
66761;SDS011;53672;48.176;16.338;2023-12-20T17:09:40;5.55;;;1.50;;
66761;SDS011;53672;48.176;16.338;2023-12-20T17:14:45;3.90;;;1.23;;
66761;SDS011;53672;48.176;16.338;2023-12-20T17:19:46;4.30;;;1.60;;
66761;SDS011;53672;48.176;16.338;2023-12-20T17:24:48;5.25;;;1.40;;
66761;SDS011;53672;48.176;16.338;2023-12-20T17:29:51;4.83;;;1.60;;
66761;SDS011;53672;48.176;16.338;2023-12-20T17:34:52;5.05;;;1.88;;
66761;SDS011;53672;48.176;16.338;2023-12-20T17:39:54;4.57;;;1.60;;
66761;SDS011;53672;48.176;16.338;2023-12-20T17:44:57;5.45;;;1.58;;
66761;SDS011;53672;48.176;16.338;2023-12-20T17:49:58;5.05;;;1.50;;
66761;SDS011;53672;48.176;16.338;2023-12-20T17:55:00;4.20;;;1.47;;
66761;SDS011;53672;48.176;16.338;2023-12-20T18:00:15;4.28;;;1.33;;
66761;SDS011;53672;48.176;16.338;2023-12-20T18:05:20;4.72;;;1.48;;
66761;SDS011;53672;48.176;16.338;2023-12-20T18:10:23;3.95;;;1.42;;
66761;SDS011;53672;48.176;16.338;2023-12-20T18:15:27;4.28;;;1.48;;
66761;SDS011;53672;48.176;16.338;2023-12-20T18:20:30;5.30;;;1.67;;
66761;SDS011;53672;48.176;16.338;2023-12-20T18:25:33;3.58;;;1.25;;
66761;SDS011;53672;48.176;16.338;2023-12-20T18:30:38;5.05;;;1.50;;
66761;SDS011;53672;48.176;16.338;2023-12-20T18:35:41;5.43;;;1.45;;
66761;SDS011;53672;48.176;16.338;2023-12-20T18:40:45;3.55;;;1.05;;
66761;SDS011;53672;48.176;16.338;2023-12-20T18:45:50;3.57;;;1.00;;
66761;SDS011;53672;48.176;16.338;2023-12-20T18:50:54;4.45;;;1.45;;
66761;SDS011;53672;48.176;16.338;2023-12-20T18:55:57;3.90;;;1.15;;
66761;SDS011;53672;48.176;16.338;2023-12-20T19:01:01;7.38;;;2.17;;
66761;SDS011;53672;48.176;16.338;2023-12-20T19:06:05;5.15;;;1.50;;
66761;SDS011;53672;48.176;16.338;2023-12-20T19:11:08;6.53;;;2.20;;
66761;SDS011;53672;48.176;16.338;2023-12-20T19:16:13;4.90;;;1.20;;
66761;SDS011;53672;48.176;16.338;2023-12-20T19:21:17;5.53;;;1.55;;
66761;SDS011;53672;48.176;16.338;2023-12-20T19:26:21;4.15;;;1.40;;
66761;SDS011;53672;48.176;16.338;2023-12-20T19:31:26;4.57;;;1.38;;
66761;SDS011;53672;48.176;16.338;2023-12-20T19:36:29;4.60;;;1.37;;
66761;SDS011;53672;48.176;16.338;2023-12-20T19:41:33;4.22;;;1.40;;
66761;SDS011;53672;48.176;16.338;2023-12-20T19:46:38;5.25;;;1.50;;
66761;SDS011;53672;48.176;16.338;2023-12-20T19:51:42;5.47;;;1.55;;
66761;SDS011;53672;48.176;16.338;2023-12-20T19:56:46;5.60;;;1.65;;
66761;SDS011;53672;48.176;16.338;2023-12-20T20:01:52;4.63;;;1.97;;
66761;SDS011;53672;48.176;16.338;2023-12-20T20:06:56;4.88;;;2.00;;
66761;SDS011;53672;48.176;16.338;2023-12-20T20:12:01;4.55;;;1.98;;
66761;SDS011;53672;48.176;16.338;2023-12-20T20:17:07;5.25;;;1.80;;
66761;SDS011;53672;48.176;16.338;2023-12-20T20:22:11;4.80;;;1.90;;
66761;SDS011;53672;48.176;16.338;2023-12-20T20:27:16;5.53;;;2.00;;
66761;SDS011;53672;48.176;16.338;2023-12-20T20:32:24;8.07;;;1.75;;
66761;SDS011;53672;48.176;16.338;2023-12-20T20:37:27;5.47;;;1.77;;
66761;SDS011;53672;48.176;16.338;2023-12-20T20:42:31;4.90;;;1.60;;
66761;SDS011;53672;48.176;16.338;2023-12-20T20:47:36;4.97;;;1.80;;
66761;SDS011;53672;48.176;16.338;2023-12-20T20:52:40;6.20;;;1.70;;
66761;SDS011;53672;48.176;16.338;2023-12-20T20:57:47;5.85;;;1.67;;
66761;SDS011;53672;48.176;16.338;2023-12-20T21:02:52;4.05;;;1.30;;
66761;SDS011;53672;48.176;16.338;2023-12-20T21:07:53;6.55;;;2.00;;
66761;SDS011;53672;48.176;16.338;2023-12-20T21:12:57;4.47;;;1.30;;
66761;SDS011;53672;48.176;16.338;2023-12-20T21:18:00;6.40;;;1.43;;
66761;SDS011;53672;48.176;16.338;2023-12-20T21:23:01;4.05;;;1.20;;
66761;SDS011;53672;48.176;16.338;2023-12-20T21:28:08;5.75;;;1.65;;
66761;SDS011;53672;48.176;16.338;2023-12-20T21:33:12;6.22;;;1.25;;
66761;SDS011;53672;48.176;16.338;2023-12-20T21:38:14;5.78;;;1.58;;
66761;SDS011;53672;48.176;16.338;2023-12-20T21:43:16;4.50;;;1.43;;
66761;SDS011;53672;48.176;16.338;2023-12-20T21:48:19;4.13;;;1.05;;
66761;SDS011;53672;48.176;16.338;2023-12-20T21:53:22;6.32;;;1.30;;
66761;SDS011;53672;48.176;16.338;2023-12-20T21:58:24;4.75;;;1.17;;
66761;SDS011;53672;48.176;16.338;2023-12-20T22:03:27;5.80;;;1.20;;
66761;SDS011;53672;48.176;16.338;2023-12-20T22:08:28;3.90;;;1.23;;
66761;SDS011;53672;48.176;16.338;2023-12-20T22:13:30;4.43;;;1.08;;
66761;SDS011;53672;48.176;16.338;2023-12-20T22:18:34;4.88;;;1.10;;
66761;SDS011;53672;48.176;16.338;2023-12-20T22:23:35;5.75;;;1.08;;
66761;SDS011;53672;48.176;16.338;2023-12-20T22:28:37;4.70;;;1.10;;
66761;SDS011;53672;48.176;16.338;2023-12-20T22:33:40;4.37;;;0.93;;
66761;SDS011;53672;48.176;16.338;2023-12-20T22:38:42;3.65;;;1.10;;
66761;SDS011;53672;48.176;16.338;2023-12-20T22:43:43;4.20;;;0.90;;
66761;SDS011;53672;48.176;16.338;2023-12-20T22:48:46;5.38;;;1.02;;
66761;SDS011;53672;48.176;16.338;2023-12-20T22:53:48;5.63;;;1.10;;
66761;SDS011;53672;48.176;16.338;2023-12-20T22:58:51;3.00;;;1.00;;
66761;SDS011;53672;48.176;16.338;2023-12-20T23:03:55;3.95;;;1.13;;
66761;SDS011;53672;48.176;16.338;2023-12-20T23:08:56;4.07;;;0.98;;
66761;SDS011;53672;48.176;16.338;2023-12-20T23:13:58;5.53;;;1.00;;
66761;SDS011;53672;48.176;16.338;2023-12-20T23:19:01;5.38;;;0.98;;
66761;SDS011;53672;48.176;16.338;2023-12-20T23:24:03;3.83;;;0.87;;
66761;SDS011;53672;48.176;16.338;2023-12-20T23:29:05;4.20;;;0.95;;
66761;SDS011;53672;48.176;16.338;2023-12-20T23:34:08;3.75;;;1.08;;
66761;SDS011;53672;48.176;16.338;2023-12-20T23:39:09;3.28;;;0.70;;
66761;SDS011;53672;48.176;16.338;2023-12-20T23:44:11;4.07;;;0.80;;
66761;SDS011;53672;48.176;16.338;2023-12-20T23:49:14;3.30;;;0.70;;
66761;SDS011;53672;48.176;16.338;2023-12-20T23:54:16;2.90;;;0.80;;
66761;SDS011;53672;48.176;16.338;2023-12-20T23:59:17;4.45;;;0.90;;
